sensor_id;sensor_type;location;lat;lon;timestamp;temperature;humidity
41965;DHT22;50120;53.250;8.702;2022-09-01T00:01:40;14.10;95.30
41965;DHT22;50120;53.250;8.702;2022-09-01T00:04:07;14.00;95.40
41965;DHT22;50120;53.250;8.702;2022-09-01T00:06:35;14.00;95.60
41965;DHT22;50120;53.250;8.702;2022-09-01T00:09:06;14.00;95.70
41965;DHT22;50120;53.250;8.702;2022-09-01T00:11:33;14.00;95.80
41965;DHT22;50120;53.250;8.702;2022-09-01T00:14:00;13.90;95.90
41965;DHT22;50120;53.250;8.702;2022-09-01T00:16:27;13.90;96.00
41965;DHT22;50120;53.250;8.702;2022-09-01T00:18:54;13.80;96.20
41965;DHT22;50120;53.250;8.702;2022-09-01T00:21:27;13.80;96.30
41965;DHT22;50120;53.250;8.702;2022-09-01T00:23:54;13.80;96.50
41965;DHT22;50120;53.250;8.702;2022-09-01T00:26:20;13.80;96.60
41965;DHT22;50120;53.250;8.702;2022-09-01T00:28:45;13.80;96.70
41965;DHT22;50120;53.250;8.702;2022-09-01T00:31:12;13.80;96.90
41965;DHT22;50120;53.250;8.702;2022-09-01T00:33:39;13.70;97.00
41965;DHT22;50120;53.250;8.702;2022-09-01T00:36:06;13.70;97.40
41965;DHT22;50120;53.250;8.702;2022-09-01T00:38:33;13.70;97.30
41965;DHT22;50120;53.250;8.702;2022-09-01T00:40:59;13.70;97.50
41965;DHT22;50120;53.250;8.702;2022-09-01T00:46:29;13.60;97.70
41965;DHT22;50120;53.250;8.702;2022-09-01T00:48:58;13.60;97.90
41965;DHT22;50120;53.250;8.702;2022-09-01T00:51:26;13.60;98.10
41965;DHT22;50120;53.250;8.702;2022-09-01T00:53:52;13.60;98.30
41965;DHT22;50120;53.250;8.702;2022-09-01T00:56:21;13.50;98.50
41965;DHT22;50120;53.250;8.702;2022-09-01T00:58:49;13.50;98.60
41965;DHT22;50120;53.250;8.702;2022-09-01T01:01:14;13.50;98.80
41965;DHT22;50120;53.250;8.702;2022-09-01T01:03:40;13.50;98.90
41965;DHT22;50120;53.250;8.702;2022-09-01T01:06:10;13.40;99.10
41965;DHT22;50120;53.250;8.702;2022-09-01T01:08:41;13.40;99.30
41965;DHT22;50120;53.250;8.702;2022-09-01T01:11:14;13.40;99.50
41965;DHT22;50120;53.250;8.702;2022-09-01T01:14:04;13.40;99.70
41965;DHT22;50120;53.250;8.702;2022-09-01T01:16:38;13.30;99.90
41965;DHT22;50120;53.250;8.702;2022-09-01T01:19:15;13.30;99.90
41965;DHT22;50120;53.250;8.702;2022-09-01T01:22:05;13.30;99.90
41965;DHT22;50120;53.250;8.702;2022-09-01T01:24:51;13.30;99.90
41965;DHT22;50120;53.250;8.702;2022-09-01T01:27:16;13.30;99.90
41965;DHT22;50120;53.250;8.702;2022-09-01T01:29:44;13.20;99.90
41965;DHT22;50120;53.250;8.702;2022-09-01T01:32:12;13.20;99.90
41965;DHT22;50120;53.250;8.702;2022-09-01T01:34:39;13.20;99.90
41965;DHT22;50120;53.250;8.702;2022-09-01T01:37:06;13.10;99.90
41965;DHT22;50120;53.250;8.702;2022-09-01T01:39:35;13.00;99.90
41965;DHT22;50120;53.250;8.702;2022-09-01T01:42:05;13.10;99.90
41965;DHT22;50120;53.250;8.702;2022-09-01T01:44:35;13.10;99.90
41965;DHT22;50120;53.250;8.702;2022-09-01T01:47:04;13.00;99.90
41965;DHT22;50120;53.250;8.702;2022-09-01T01:49:33;13.00;99.90
41965;DHT22;50120;53.250;8.702;2022-09-01T01:51:59;13.00;99.90
41965;DHT22;50120;53.250;8.702;2022-09-01T01:54:26;12.90;99.90
41965;DHT22;50120;53.250;8.702;2022-09-01T01:56:54;12.90;99.90
41965;DHT22;50120;53.250;8.702;2022-09-01T01:59:20;12.90;99.90
41965;DHT22;50120;53.250;8.702;2022-09-01T02:01:49;12.90;99.90
41965;DHT22;50120;53.250;8.702;2022-09-01T02:04:16;12.80;99.90
41965;DHT22;50120;53.250;8.702;2022-09-01T02:06:43;12.80;99.90
41965;DHT22;50120;53.250;8.702;2022-09-01T02:09:11;12.80;99.90
41965;DHT22;50120;53.250;8.702;2022-09-01T02:11:37;12.80;99.90
41965;DHT22;50120;53.250;8.702;2022-09-01T02:14:05;12.80;99.90
41965;DHT22;50120;53.250;8.702;2022-09-01T02:16:32;12.80;99.90
41965;DHT22;50120;53.250;8.702;2022-09-01T02:18:59;12.70;99.90
41965;DHT22;50120;53.250;8.702;2022-09-01T02:21:26;12.70;99.90
41965;DHT22;50120;53.250;8.702;2022-09-01T02:24:00;12.70;99.90
41965;DHT22;50120;53.250;8.702;2022-09-01T02:26:29;12.70;99.90
41965;DHT22;50120;53.250;8.702;2022-09-01T02:28:56;12.60;99.90
41965;DHT22;50120;53.250;8.702;2022-09-01T02:31:23;12.60;99.90
41965;DHT22;50120;53.250;8.702;2022-09-01T02:33:49;12.60;99.90
41965;DHT22;50120;53.250;8.702;2022-09-01T02:36:17;12.60;99.90
41965;DHT22;50120;53.250;8.702;2022-09-01T02:38:44;12.60;99.90
41965;DHT22;50120;53.250;8.702;2022-09-01T02:41:11;12.60;99.90
41965;DHT22;50120;53.250;8.702;2022-09-01T02:43:41;12.50;99.90
41965;DHT22;50120;53.250;8.702;2022-09-01T02:46:10;12.50;99.90
41965;DHT22;50120;53.250;8.702;2022-09-01T02:48:39;12.50;99.90
41965;DHT22;50120;53.250;8.702;2022-09-01T02:51:09;12.50;99.90
41965;DHT22;50120;53.250;8.702;2022-09-01T02:53:37;12.50;99.90
41965;DHT22;50120;53.250;8.702;2022-09-01T02:56:05;12.50;99.90
41965;DHT22;50120;53.250;8.702;2022-09-01T02:58:34;12.50;99.90
41965;DHT22;50120;53.250;8.702;2022-09-01T03:01:18;12.50;99.90
41965;DHT22;50120;53.250;8.702;2022-09-01T03:03:47;12.60;99.90
41965;DHT22;50120;53.250;8.702;2022-09-01T03:06:13;12.60;99.90
41965;DHT22;50120;53.250;8.702;2022-09-01T03:08:42;12.50;99.90
41965;DHT22;50120;53.250;8.702;2022-09-01T03:11:08;12.60;99.90
41965;DHT22;50120;53.250;8.702;2022-09-01T03:13:37;12.60;99.90
41965;DHT22;50120;53.250;8.702;2022-09-01T03:16:04;12.60;99.90
41965;DHT22;50120;53.250;8.702;2022-09-01T03:18:30;12.60;99.90
41965;DHT22;50120;53.250;8.702;2022-09-01T03:20:56;12.60;99.90
41965;DHT22;50120;53.250;8.702;2022-09-01T03:23:22;12.70;99.90
41965;DHT22;50120;53.250;8.702;2022-09-01T03:25:50;12.70;99.90
41965;DHT22;50120;53.250;8.702;2022-09-01T03:28:16;12.70;99.90
41965;DHT22;50120;53.250;8.702;2022-09-01T03:30:46;12.70;99.90
41965;DHT22;50120;53.250;8.702;2022-09-01T03:33:14;12.80;99.90
41965;DHT22;50120;53.250;8.702;2022-09-01T03:35:42;12.80;99.90
41965;DHT22;50120;53.250;8.702;2022-09-01T03:38:09;12.80;99.90
41965;DHT22;50120;53.250;8.702;2022-09-01T03:40:37;12.80;99.90
41965;DHT22;50120;53.250;8.702;2022-09-01T03:43:05;12.80;99.90
41965;DHT22;50120;53.250;8.702;2022-09-01T03:45:33;12.80;99.90
41965;DHT22;50120;53.250;8.702;2022-09-01T03:48:06;12.90;99.90
41965;DHT22;50120;53.250;8.702;2022-09-01T03:50:36;12.80;99.90
41965;DHT22;50120;53.250;8.702;2022-09-01T03:53:04;12.90;99.90
41965;DHT22;50120;53.250;8.702;2022-09-01T03:55:32;12.80;99.90
41965;DHT22;50120;53.250;8.702;2022-09-01T03:58:02;12.80;99.90
41965;DHT22;50120;53.250;8.702;2022-09-01T04:00:35;12.90;99.90
41965;DHT22;50120;53.250;8.702;2022-09-01T04:03:03;12.90;99.90
41965;DHT22;50120;53.250;8.702;2022-09-01T04:05:30;12.90;99.90
41965;DHT22;50120;53.250;8.702;2022-09-01T04:08:09;12.90;99.90
41965;DHT22;50120;53.250;8.702;2022-09-01T04:10:42;12.90;99.90
41965;DHT22;50120;53.250;8.702;2022-09-01T04:13:16;12.90;99.90
41965;DHT22;50120;53.250;8.702;2022-09-01T04:15:42;12.90;99.90
41965;DHT22;50120;53.250;8.702;2022-09-01T04:18:08;12.90;99.90
41965;DHT22;50120;53.250;8.702;2022-09-01T04:20:41;12.90;99.90
41965;DHT22;50120;53.250;8.702;2022-09-01T04:23:25;12.90;99.90
41965;DHT22;50120;53.250;8.702;2022-09-01T04:26:11;12.90;99.90
41965;DHT22;50120;53.250;8.702;2022-09-01T04:28:48;12.90;99.90
41965;DHT22;50120;53.250;8.702;2022-09-01T04:31:19;12.90;99.90
41965;DHT22;50120;53.250;8.702;2022-09-01T04:33:48;12.90;99.90
41965;DHT22;50120;53.250;8.702;2022-09-01T04:38:47;12.90;99.90
41965;DHT22;50120;53.250;8.702;2022-09-01T04:41:13;12.90;99.90
41965;DHT22;50120;53.250;8.702;2022-09-01T04:43:46;12.90;99.90
41965;DHT22;50120;53.250;8.702;2022-09-01T04:46:13;13.00;99.90
41965;DHT22;50120;53.250;8.702;2022-09-01T04:48:40;13.00;99.90
41965;DHT22;50120;53.250;8.702;2022-09-01T04:51:13;13.00;99.90
41965;DHT22;50120;53.250;8.702;2022-09-01T04:53:40;13.00;99.90
41965;DHT22;50120;53.250;8.702;2022-09-01T04:56:08;13.00;99.90
41965;DHT22;50120;53.250;8.702;2022-09-01T04:59:02;13.00;99.90
41965;DHT22;50120;53.250;8.702;2022-09-01T05:01:32;13.10;99.90
41965;DHT22;50120;53.250;8.702;2022-09-01T05:04:12;13.00;99.90
41965;DHT22;50120;53.250;8.702;2022-09-01T05:06:55;13.10;99.90
41965;DHT22;50120;53.250;8.702;2022-09-01T05:09:24;13.10;99.90
41965;DHT22;50120;53.250;8.702;2022-09-01T05:11:50;13.10;99.90
41965;DHT22;50120;53.250;8.702;2022-09-01T05:14:17;13.20;99.90
41965;DHT22;50120;53.250;8.702;2022-09-01T05:16:45;13.20;99.90
41965;DHT22;50120;53.250;8.702;2022-09-01T05:19:12;13.20;99.90
41965;DHT22;50120;53.250;8.702;2022-09-01T05:21:42;13.30;99.90
41965;DHT22;50120;53.250;8.702;2022-09-01T05:24:11;13.30;99.90
41965;DHT22;50120;53.250;8.702;2022-09-01T05:26:39;13.40;99.90
41965;DHT22;50120;53.250;8.702;2022-09-01T05:29:07;13.40;99.90
41965;DHT22;50120;53.250;8.702;2022-09-01T05:31:38;13.40;99.90
41965;DHT22;50120;53.250;8.702;2022-09-01T05:34:04;13.50;99.90
41965;DHT22;50120;53.250;8.702;2022-09-01T05:36:32;13.50;99.90
41965;DHT22;50120;53.250;8.702;2022-09-01T05:38:58;13.60;99.90
41965;DHT22;50120;53.250;8.702;2022-09-01T05:41:25;13.60;99.90
41965;DHT22;50120;53.250;8.702;2022-09-01T05:43:51;13.70;99.90
41965;DHT22;50120;53.250;8.702;2022-09-01T05:46:20;13.70;99.90
41965;DHT22;50120;53.250;8.702;2022-09-01T05:48:49;13.80;99.90
41965;DHT22;50120;53.250;8.702;2022-09-01T05:51:20;13.80;99.90
41965;DHT22;50120;53.250;8.702;2022-09-01T05:53:50;13.90;99.90
41965;DHT22;50120;53.250;8.702;2022-09-01T05:56:18;14.00;99.90
41965;DHT22;50120;53.250;8.702;2022-09-01T05:58:45;14.00;99.90
41965;DHT22;50120;53.250;8.702;2022-09-01T06:01:16;14.00;99.90
41965;DHT22;50120;53.250;8.702;2022-09-01T06:03:50;14.10;99.90
41965;DHT22;50120;53.250;8.702;2022-09-01T06:06:25;14.10;99.90
41965;DHT22;50120;53.250;8.702;2022-09-01T06:08:52;14.20;99.90
41965;DHT22;50120;53.250;8.702;2022-09-01T06:11:26;14.10;99.90
41965;DHT22;50120;53.250;8.702;2022-09-01T06:13:57;14.10;99.90
41965;DHT22;50120;53.250;8.702;2022-09-01T06:16:23;14.20;99.90
41965;DHT22;50120;53.250;8.702;2022-09-01T06:18:50;14.20;99.90
41965;DHT22;50120;53.250;8.702;2022-09-01T06:21:20;14.20;99.90
41965;DHT22;50120;53.250;8.702;2022-09-01T06:23:47;14.20;99.90
41965;DHT22;50120;53.250;8.702;2022-09-01T06:26:33;14.30;99.90
41965;DHT22;50120;53.250;8.702;2022-09-01T06:29:04;14.30;99.90
41965;DHT22;50120;53.250;8.702;2022-09-01T06:31:33;14.40;99.90
41965;DHT22;50120;53.250;8.702;2022-09-01T06:34:02;14.40;99.90
41965;DHT22;50120;53.250;8.702;2022-09-01T06:36:29;14.60;99.90
41965;DHT22;50120;53.250;8.702;2022-09-01T06:38:58;14.50;99.90
41965;DHT22;50120;53.250;8.702;2022-09-01T06:41:26;14.50;99.90
41965;DHT22;50120;53.250;8.702;2022-09-01T06:43:53;14.60;99.90
41965;DHT22;50120;53.250;8.702;2022-09-01T06:46:21;14.70;99.90
41965;DHT22;50120;53.250;8.702;2022-09-01T06:48:48;14.80;99.90
41965;DHT22;50120;53.250;8.702;2022-09-01T06:51:19;14.80;99.90
41965;DHT22;50120;53.250;8.702;2022-09-01T06:53:47;14.80;99.90
41965;DHT22;50120;53.250;8.702;2022-09-01T06:56:18;14.90;99.90
41965;DHT22;50120;53.250;8.702;2022-09-01T06:58:45;15.00;99.90
41965;DHT22;50120;53.250;8.702;2022-09-01T07:01:14;15.10;99.90
41965;DHT22;50120;53.250;8.702;2022-09-01T07:03:47;15.20;99.90
41965;DHT22;50120;53.250;8.702;2022-09-01T07:06:16;15.40;99.90
41965;DHT22;50120;53.250;8.702;2022-09-01T07:08:42;15.40;99.90
41965;DHT22;50120;53.250;8.702;2022-09-01T07:11:20;15.50;99.90
41965;DHT22;50120;53.250;8.702;2022-09-01T07:13:53;15.60;99.90
41965;DHT22;50120;53.250;8.702;2022-09-01T07:16:21;15.70;99.90
41965;DHT22;50120;53.250;8.702;2022-09-01T07:18:48;15.80;99.90
41965;DHT22;50120;53.250;8.702;2022-09-01T07:21:15;15.90;99.90
41965;DHT22;50120;53.250;8.702;2022-09-01T07:23:41;16.00;99.90
41965;DHT22;50120;53.250;8.702;2022-09-01T07:26:11;16.00;99.90
41965;DHT22;50120;53.250;8.702;2022-09-01T07:28:43;16.20;99.90
41965;DHT22;50120;53.250;8.702;2022-09-01T07:31:17;16.30;99.90
41965;DHT22;50120;53.250;8.702;2022-09-01T07:33:46;16.40;99.90
41965;DHT22;50120;53.250;8.702;2022-09-01T07:36:14;16.40;99.90
41965;DHT22;50120;53.250;8.702;2022-09-01T07:38:40;16.50;99.90
41965;DHT22;50120;53.250;8.702;2022-09-01T07:41:08;16.60;99.90
41965;DHT22;50120;53.250;8.702;2022-09-01T07:43:38;16.70;99.90
41965;DHT22;50120;53.250;8.702;2022-09-01T07:46:10;16.80;99.90
41965;DHT22;50120;53.250;8.702;2022-09-01T07:48:36;16.90;99.90
41965;DHT22;50120;53.250;8.702;2022-09-01T07:51:03;16.90;99.80
41965;DHT22;50120;53.250;8.702;2022-09-01T07:53:32;16.90;99.60
41965;DHT22;50120;53.250;8.702;2022-09-01T07:56:06;17.00;99.70
41965;DHT22;50120;53.250;8.702;2022-09-01T07:58:35;17.00;99.60
41965;DHT22;50120;53.250;8.702;2022-09-01T08:01:11;17.10;98.50
41965;DHT22;50120;53.250;8.702;2022-09-01T08:03:38;17.20;98.20
41965;DHT22;50120;53.250;8.702;2022-09-01T08:06:11;17.30;98.60
41965;DHT22;50120;53.250;8.702;2022-09-01T08:08:37;17.50;97.70
41965;DHT22;50120;53.250;8.702;2022-09-01T08:11:04;17.80;97.50
41965;DHT22;50120;53.250;8.702;2022-09-01T08:13:32;18.00;96.50
41965;DHT22;50120;53.250;8.702;2022-09-01T08:15:57;18.20;96.40
41965;DHT22;50120;53.250;8.702;2022-09-01T08:18:23;18.30;95.60
41965;DHT22;50120;53.250;8.702;2022-09-01T08:20:49;18.50;94.40
41965;DHT22;50120;53.250;8.702;2022-09-01T08:23:17;18.70;92.90
41965;DHT22;50120;53.250;8.702;2022-09-01T08:25:45;18.90;93.40
41965;DHT22;50120;53.250;8.702;2022-09-01T08:28:12;19.10;92.70
41965;DHT22;50120;53.250;8.702;2022-09-01T08:30:41;19.30;91.40
41965;DHT22;50120;53.250;8.702;2022-09-01T08:33:07;19.40;90.90
41965;DHT22;50120;53.250;8.702;2022-09-01T08:35:47;19.40;91.00
41965;DHT22;50120;53.250;8.702;2022-09-01T08:38:13;19.60;91.10
41965;DHT22;50120;53.250;8.702;2022-09-01T08:40:40;19.60;90.20
41965;DHT22;50120;53.250;8.702;2022-09-01T08:46:01;19.50;89.40
41965;DHT22;50120;53.250;8.702;2022-09-01T08:48:45;19.70;89.60
41965;DHT22;50120;53.250;8.702;2022-09-01T08:51:22;19.80;89.00
41965;DHT22;50120;53.250;8.702;2022-09-01T08:53:58;19.90;89.30
41965;DHT22;50120;53.250;8.702;2022-09-01T08:56:26;19.80;87.30
41965;DHT22;50120;53.250;8.702;2022-09-01T08:58:52;20.00;88.80
41965;DHT22;50120;53.250;8.702;2022-09-01T09:01:39;20.30;88.20
41965;DHT22;50120;53.250;8.702;2022-09-01T09:07:57;20.40;83.60
41965;DHT22;50120;53.250;8.702;2022-09-01T09:10:02;20.50;81.70
41965;DHT22;50120;53.250;8.702;2022-09-01T09:15:13;20.70;79.30
41965;DHT22;50120;53.250;8.702;2022-09-01T09:17:48;21.00;77.30
41965;DHT22;50120;53.250;8.702;2022-09-01T09:20:17;21.00;74.30
41965;DHT22;50120;53.250;8.702;2022-09-01T09:22:45;20.90;77.00
41965;DHT22;50120;53.250;8.702;2022-09-01T09:25:15;21.10;72.70
41965;DHT22;50120;53.250;8.702;2022-09-01T09:27:44;21.20;74.70
41965;DHT22;50120;53.250;8.702;2022-09-01T09:30:22;21.20;75.90
41965;DHT22;50120;53.250;8.702;2022-09-01T09:35:28;21.60;78.10
41965;DHT22;50120;53.250;8.702;2022-09-01T09:38:15;21.80;75.50
41965;DHT22;50120;53.250;8.702;2022-09-01T09:41:06;21.80;74.70
41965;DHT22;50120;53.250;8.702;2022-09-01T09:43:36;21.80;72.40
41965;DHT22;50120;53.250;8.702;2022-09-01T09:51:33;21.50;73.90
41965;DHT22;50120;53.250;8.702;2022-09-01T09:54:19;21.50;72.10
41965;DHT22;50120;53.250;8.702;2022-09-01T09:56:46;21.60;75.10
41965;DHT22;50120;53.250;8.702;2022-09-01T09:59:27;21.80;73.30
41965;DHT22;50120;53.250;8.702;2022-09-01T10:02:24;21.90;73.40
41965;DHT22;50120;53.250;8.702;2022-09-01T10:04:51;22.20;74.90
41965;DHT22;50120;53.250;8.702;2022-09-01T10:07:33;22.20;70.50
41965;DHT22;50120;53.250;8.702;2022-09-01T10:10:05;21.90;71.40
41965;DHT22;50120;53.250;8.702;2022-09-01T10:12:31;21.90;74.40
41965;DHT22;50120;53.250;8.702;2022-09-01T10:15:03;22.10;73.30
41965;DHT22;50120;53.250;8.702;2022-09-01T10:17:34;22.40;72.50
41965;DHT22;50120;53.250;8.702;2022-09-01T10:20:16;22.50;72.10
41965;DHT22;50120;53.250;8.702;2022-09-01T10:22:43;22.40;71.00
41965;DHT22;50120;53.250;8.702;2022-09-01T10:25:15;22.40;70.00
41965;DHT22;50120;53.250;8.702;2022-09-01T10:27:46;22.30;69.50
41965;DHT22;50120;53.250;8.702;2022-09-01T10:30:18;22.20;69.00
41965;DHT22;50120;53.250;8.702;2022-09-01T10:35:29;22.20;70.70
41965;DHT22;50120;53.250;8.702;2022-09-01T10:37:57;22.40;69.40
41965;DHT22;50120;53.250;8.702;2022-09-01T10:48:45;22.60;68.80
41965;DHT22;50120;53.250;8.702;2022-09-01T10:53:41;22.80;67.70
41965;DHT22;50120;53.250;8.702;2022-09-01T10:56:15;22.70;66.10
41965;DHT22;50120;53.250;8.702;2022-09-01T11:04:18;23.10;68.40
41965;DHT22;50120;53.250;8.702;2022-09-01T11:06:59;23.30;68.20
41965;DHT22;50120;53.250;8.702;2022-09-01T11:09:38;23.30;64.90
41965;DHT22;50120;53.250;8.702;2022-09-01T11:20:30;23.30;65.30
41965;DHT22;50120;53.250;8.702;2022-09-01T11:23:29;23.40;64.50
41965;DHT22;50120;53.250;8.702;2022-09-01T11:26:01;23.40;65.10
41965;DHT22;50120;53.250;8.702;2022-09-01T11:38:50;24.20;61.80
41965;DHT22;50120;53.250;8.702;2022-09-01T11:41:25;24.30;64.20
41965;DHT22;50120;53.250;8.702;2022-09-01T11:43:57;24.20;61.00
41965;DHT22;50120;53.250;8.702;2022-09-01T11:46:32;24.30;62.20
41965;DHT22;50120;53.250;8.702;2022-09-01T11:49:00;24.30;62.30
41965;DHT22;50120;53.250;8.702;2022-09-01T11:51:38;24.30;59.40
41965;DHT22;50120;53.250;8.702;2022-09-01T11:54:06;24.00;60.60
41965;DHT22;50120;53.250;8.702;2022-09-01T11:56:32;23.80;61.80
41965;DHT22;50120;53.250;8.702;2022-09-01T11:58:57;23.60;61.70
41965;DHT22;50120;53.250;8.702;2022-09-01T12:03:55;23.20;62.60
41965;DHT22;50120;53.250;8.702;2022-09-01T12:06:27;22.80;62.20
41965;DHT22;50120;53.250;8.702;2022-09-01T12:08:59;22.70;64.10
41965;DHT22;50120;53.250;8.702;2022-09-01T12:11:44;22.50;63.40
41965;DHT22;50120;53.250;8.702;2022-09-01T12:14:17;22.40;63.20
41965;DHT22;50120;53.250;8.702;2022-09-01T12:16:43;22.20;63.90
41965;DHT22;50120;53.250;8.702;2022-09-01T12:19:23;22.10;64.70
41965;DHT22;50120;53.250;8.702;2022-09-01T12:21:59;22.00;63.80
41965;DHT22;50120;53.250;8.702;2022-09-01T12:24:26;21.90;65.90
41965;DHT22;50120;53.250;8.702;2022-09-01T12:26:53;22.10;64.10
41965;DHT22;50120;53.250;8.702;2022-09-01T12:29:20;22.50;65.50
41965;DHT22;50120;53.250;8.702;2022-09-01T12:31:50;22.80;63.30
41965;DHT22;50120;53.250;8.702;2022-09-01T12:34:36;22.90;61.20
41965;DHT22;50120;53.250;8.702;2022-09-01T12:37:21;22.80;63.70
41965;DHT22;50120;53.250;8.702;2022-09-01T12:39:51;23.10;61.30
41965;DHT22;50120;53.250;8.702;2022-09-01T12:44:59;23.60;61.90
41965;DHT22;50120;53.250;8.702;2022-09-01T12:52:28;24.00;60.60
41965;DHT22;50120;53.250;8.702;2022-09-01T12:55:18;23.70;60.30
41965;DHT22;50120;53.250;8.702;2022-09-01T12:57:48;23.50;59.20
41965;DHT22;50120;53.250;8.702;2022-09-01T13:00:25;23.60;58.70
41965;DHT22;50120;53.250;8.702;2022-09-01T13:05:22;23.40;58.70
41965;DHT22;50120;53.250;8.702;2022-09-01T13:07:51;23.10;58.20
41965;DHT22;50120;53.250;8.702;2022-09-01T13:10:17;22.90;60.40
41965;DHT22;50120;53.250;8.702;2022-09-01T13:12:46;22.90;60.80
41965;DHT22;50120;53.250;8.702;2022-09-01T13:15:12;23.20;59.40
41965;DHT22;50120;53.250;8.702;2022-09-01T13:17:38;23.40;57.90
41965;DHT22;50120;53.250;8.702;2022-09-01T13:20:05;23.40;58.60
41965;DHT22;50120;53.250;8.702;2022-09-01T13:22:32;23.60;59.00
41965;DHT22;50120;53.250;8.702;2022-09-01T13:24:59;23.80;58.40
41965;DHT22;50120;53.250;8.702;2022-09-01T13:27:25;24.00;58.60
41965;DHT22;50120;53.250;8.702;2022-09-01T13:29:51;24.20;58.20
41965;DHT22;50120;53.250;8.702;2022-09-01T13:32:18;24.30;58.50
41965;DHT22;50120;53.250;8.702;2022-09-01T13:34:44;24.50;58.40
41965;DHT22;50120;53.250;8.702;2022-09-01T13:37:09;24.70;57.70
41965;DHT22;50120;53.250;8.702;2022-09-01T13:39:35;24.80;57.80
41965;DHT22;50120;53.250;8.702;2022-09-01T13:42:01;24.90;56.90
41965;DHT22;50120;53.250;8.702;2022-09-01T13:44:26;25.10;57.00
41965;DHT22;50120;53.250;8.702;2022-09-01T13:46:52;25.40;56.90
41965;DHT22;50120;53.250;8.702;2022-09-01T13:49:19;25.60;55.70
41965;DHT22;50120;53.250;8.702;2022-09-01T13:51:50;25.40;56.40
41965;DHT22;50120;53.250;8.702;2022-09-01T13:54:16;25.60;55.30
41965;DHT22;50120;53.250;8.702;2022-09-01T13:56:42;25.40;56.10
41965;DHT22;50120;53.250;8.702;2022-09-01T13:59:08;25.00;56.50
41965;DHT22;50120;53.250;8.702;2022-09-01T14:01:34;24.50;56.20
41965;DHT22;50120;53.250;8.702;2022-09-01T14:04:00;24.20;57.90
41965;DHT22;50120;53.250;8.702;2022-09-01T14:06:28;23.80;58.10
41965;DHT22;50120;53.250;8.702;2022-09-01T14:08:53;23.50;58.70
41965;DHT22;50120;53.250;8.702;2022-09-01T14:11:19;23.60;57.50
41965;DHT22;50120;53.250;8.702;2022-09-01T14:13:46;24.00;57.60
41965;DHT22;50120;53.250;8.702;2022-09-01T14:16:12;24.00;56.10
41965;DHT22;50120;53.250;8.702;2022-09-01T14:18:40;24.20;55.60
41965;DHT22;50120;53.250;8.702;2022-09-01T14:21:10;24.40;56.50
41965;DHT22;50120;53.250;8.702;2022-09-01T14:23:36;24.50;55.10
41965;DHT22;50120;53.250;8.702;2022-09-01T14:26:08;24.40;56.40
41965;DHT22;50120;53.250;8.702;2022-09-01T14:28:36;24.30;55.60
41965;DHT22;50120;53.250;8.702;2022-09-01T14:31:07;24.20;55.60
41965;DHT22;50120;53.250;8.702;2022-09-01T14:33:34;23.80;55.50
41965;DHT22;50120;53.250;8.702;2022-09-01T14:36:00;23.30;56.70
41965;DHT22;50120;53.250;8.702;2022-09-01T14:38:27;23.50;56.40
41965;DHT22;50120;53.250;8.702;2022-09-01T14:40:53;23.70;57.10
41965;DHT22;50120;53.250;8.702;2022-09-01T14:43:18;24.00;57.20
41965;DHT22;50120;53.250;8.702;2022-09-01T14:45:46;24.20;56.20
41965;DHT22;50120;53.250;8.702;2022-09-01T14:48:14;24.40;55.50
41965;DHT22;50120;53.250;8.702;2022-09-01T14:50:42;24.70;55.30
41965;DHT22;50120;53.250;8.702;2022-09-01T14:53:09;24.80;54.70
41965;DHT22;50120;53.250;8.702;2022-09-01T14:55:35;25.00;54.50
41965;DHT22;50120;53.250;8.702;2022-09-01T14:58:01;24.70;53.80
41965;DHT22;50120;53.250;8.702;2022-09-01T15:00:28;24.20;54.60
41965;DHT22;50120;53.250;8.702;2022-09-01T15:02:56;23.80;55.60
41965;DHT22;50120;53.250;8.702;2022-09-01T15:05:23;23.60;55.80
41965;DHT22;50120;53.250;8.702;2022-09-01T15:07:50;23.50;56.00
41965;DHT22;50120;53.250;8.702;2022-09-01T15:10:18;23.80;55.30
41965;DHT22;50120;53.250;8.702;2022-09-01T15:12:44;23.90;55.20
41965;DHT22;50120;53.250;8.702;2022-09-01T15:15:10;24.00;54.50
41965;DHT22;50120;53.250;8.702;2022-09-01T15:17:36;23.80;55.50
41965;DHT22;50120;53.250;8.702;2022-09-01T15:20:03;23.60;56.20
41965;DHT22;50120;53.250;8.702;2022-09-01T15:22:49;23.40;56.70
41965;DHT22;50120;53.250;8.702;2022-09-01T15:25:16;23.10;57.30
41965;DHT22;50120;53.250;8.702;2022-09-01T15:27:42;22.80;57.80
41965;DHT22;50120;53.250;8.702;2022-09-01T15:30:09;22.50;58.30
41965;DHT22;50120;53.250;8.702;2022-09-01T15:32:43;22.40;58.90
41965;DHT22;50120;53.250;8.702;2022-09-01T15:35:10;22.30;58.80
41965;DHT22;50120;53.250;8.702;2022-09-01T15:37:36;22.20;59.20
41965;DHT22;50120;53.250;8.702;2022-09-01T15:40:02;22.10;58.70
41965;DHT22;50120;53.250;8.702;2022-09-01T15:42:28;22.10;57.90
41965;DHT22;50120;53.250;8.702;2022-09-01T15:44:54;22.10;59.40
41965;DHT22;50120;53.250;8.702;2022-09-01T15:47:20;22.10;57.50
41965;DHT22;50120;53.250;8.702;2022-09-01T15:49:45;22.10;58.00
41965;DHT22;50120;53.250;8.702;2022-09-01T15:52:11;22.10;58.30
41965;DHT22;50120;53.250;8.702;2022-09-01T15:54:37;22.10;58.30
41965;DHT22;50120;53.250;8.702;2022-09-01T15:57:04;22.10;58.80
41965;DHT22;50120;53.250;8.702;2022-09-01T15:59:30;22.00;58.60
41965;DHT22;50120;53.250;8.702;2022-09-01T16:01:57;21.90;58.90
41965;DHT22;50120;53.250;8.702;2022-09-01T16:04:23;21.90;58.40
41965;DHT22;50120;53.250;8.702;2022-09-01T16:06:49;21.90;58.10
41965;DHT22;50120;53.250;8.702;2022-09-01T16:09:16;21.80;58.60
41965;DHT22;50120;53.250;8.702;2022-09-01T16:11:43;21.80;58.60
41965;DHT22;50120;53.250;8.702;2022-09-01T16:14:09;21.90;58.60
41965;DHT22;50120;53.250;8.702;2022-09-01T16:21:48;22.00;58.70
41965;DHT22;50120;53.250;8.702;2022-09-01T16:24:17;22.00;58.10
41965;DHT22;50120;53.250;8.702;2022-09-01T16:26:45;22.00;59.30
41965;DHT22;50120;53.250;8.702;2022-09-01T16:29:30;22.00;59.30
41965;DHT22;50120;53.250;8.702;2022-09-01T16:31:58;21.90;60.00
41965;DHT22;50120;53.250;8.702;2022-09-01T16:34:24;21.90;60.10
41965;DHT22;50120;53.250;8.702;2022-09-01T16:53:48;21.30;61.50
41965;DHT22;50120;53.250;8.702;2022-09-01T16:56:59;21.20;62.00
41965;DHT22;50120;53.250;8.702;2022-09-01T17:04:53;21.00;63.80
41965;DHT22;50120;53.250;8.702;2022-09-01T17:12:55;20.80;64.00
41965;DHT22;50120;53.250;8.702;2022-09-01T17:15:33;20.70;63.80
41965;DHT22;50120;53.250;8.702;2022-09-01T17:20:51;20.70;63.80
41965;DHT22;50120;53.250;8.702;2022-09-01T17:23:25;20.60;65.10
41965;DHT22;50120;53.250;8.702;2022-09-01T17:26:26;20.60;64.50
41965;DHT22;50120;53.250;8.702;2022-09-01T17:29:15;20.50;65.80
41965;DHT22;50120;53.250;8.702;2022-09-01T17:32:18;20.50;66.60
41965;DHT22;50120;53.250;8.702;2022-09-01T17:34:58;20.40;67.10
41965;DHT22;50120;53.250;8.702;2022-09-01T17:37:44;20.30;67.10